Time;durP1;ratioP1;P1;durP2;ratioP2;P2;SDS_P1;SDS_P2;PMS_P1;PMS_P2;Temp;Humidity;BMP_temperature;BMP_pressure;BME280_temperature;BME280_humidity;BME280_pressure;Samples;Min_cycle;Max_cycle;Signal;HPM_P1;HPM_P2
2023/06/22 00:00:50;;;;;;;4.28;2.55;;;;;;;22.80;50.02;99990.97;10389790;28;20053;-84
2023/06/22 00:05:52;;;;;;;5.32;2.85;;;;;;;22.64;50.33;99988.28;10384179;28;20056;-84
2023/06/22 00:10:54;;;;;;;4.75;2.55;;;;;;;22.86;50.12;99986.81;10392118;28;20665;-84
2023/06/22 00:15:56;;;;;;;4.18;2.35;;;;;;;22.84;50.30;100007.47;10405007;28;20046;-84
2023/06/22 00:20:59;;;;;;;5.63;2.78;;;;;;;22.73;50.85;100008.66;10406967;28;20063;-84
2023/06/22 00:26:02;;;;;;;5.07;2.83;;;;;;;22.81;51.30;100019.31;10395595;28;20132;-84
2023/06/22 00:31:04;;;;;;;4.75;2.58;;;;;;;22.85;51.45;100015.31;10402047;28;20054;-84
2023/06/22 00:36:07;;;;;;;5.38;2.63;;;;;;;22.82;52.31;100034.28;10404134;28;20049;-85
2023/06/22 00:41:11;;;;;;;4.57;2.55;;;;;;;22.80;52.49;100032.81;10404610;28;20513;-84
2023/06/22 00:46:14;;;;;;;3.92;2.53;;;;;;;22.74;52.74;100030.81;10404027;28;20052;-84
2023/06/22 00:51:17;;;;;;;4.05;2.67;;;;;;;22.66;52.93;100039.59;10402963;28;20184;-85
2023/06/22 00:56:19;;;;;;;4.28;2.65;;;;;;;22.56;53.23;100046.91;10400549;28;20041;-85
2023/06/22 01:01:23;;;;;;;5.00;2.97;;;;;;;22.59;53.08;100052.78;10422048;28;20064;-84
2023/06/22 01:06:37;;;;;;;4.43;2.78;;;;;;;22.50;54.04;100059.09;10401168;28;20495;-85
2023/06/22 01:11:45;;;;;;;4.47;2.72;;;;;;;22.42;54.38;100061.75;10400525;28;20049;-84
2023/06/22 01:16:50;;;;;;;5.60;3.15;;;;;;;22.27;54.56;100068.69;10408937;28;20048;-85
2023/06/22 01:21:55;;;;;;;4.47;3.08;;;;;;;21.91;55.50;100048.56;10418981;28;20454;-85
2023/06/22 01:27:17;;;;;;;4.85;3.00;;;;;;;21.61;57.70;100035.81;10385763;28;20042;-85
2023/06/22 01:32:20;;;;;;;4.90;2.90;;;;;;;21.28;57.18;100032.13;10421236;28;20047;-85
2023/06/22 01:37:22;;;;;;;4.80;2.70;;;;;;;21.07;57.81;100029.81;10402370;28;20513;-85
2023/06/22 01:42:26;;;;;;;8.70;3.17;;;;;;;20.93;58.20;100027.72;10383648;28;20080;-85
2023/06/22 01:47:28;;;;;;;5.50;3.17;;;;;;;20.92;58.29;100041.19;10400386;28;20052;-85
2023/06/22 01:52:30;;;;;;;5.55;3.28;;;;;;;21.04;58.64;100032.81;10384246;28;20053;-86
2023/06/22 01:57:32;;;;;;;6.22;3.35;;;;;;;21.01;58.58;100014.50;10386567;28;20391;-86
2023/06/22 02:02:38;;;;;;;7.88;3.38;;;;;;;20.92;59.61;100002.16;10401913;28;20046;-86
2023/06/22 02:07:59;;;;;;;5.80;3.38;;;;;;;20.77;61.37;99984.22;10423261;28;20046;-86
2023/06/22 02:13:04;;;;;;;6.03;3.50;;;;;;;20.73;60.10;99978.41;10422229;28;20045;-86
2023/06/22 02:18:07;;;;;;;5.88;3.28;;;;;;;20.79;59.75;100003.53;10423838;28;20041;-86
2023/06/22 02:23:09;;;;;;;5.43;3.45;;;;;;;21.04;60.16;100030.16;10425422;28;20120;-86
2023/06/22 02:28:11;;;;;;;6.85;3.17;;;;;;;21.09;60.42;100016.34;10422406;28;20045;-86
2023/06/22 02:33:13;;;;;;;8.30;3.45;;;;;;;20.90;60.49;100032.53;10423419;28;20153;-86
2023/06/22 02:38:15;;;;;;;5.88;2.90;;;;;;;21.01;60.86;100029.59;10404330;28;20426;-85
2023/06/22 02:43:17;;;;;;;5.50;3.25;;;;;;;20.98;60.69;100009.50;10389698;28;20485;-86
2023/06/22 02:48:19;;;;;;;4.68;2.92;;;;;;;20.82;60.87;99982.81;10405154;28;20126;-86
2023/06/22 02:53:21;;;;;;;6.47;2.92;;;;;;;20.56;61.05;99981.88;10403851;28;20136;-85
2023/06/22 02:58:24;;;;;;;4.75;3.13;;;;;;;20.39;61.88;99973.94;10403909;28;20055;-85
2023/06/22 03:03:26;;;;;;;5.65;3.20;;;;;;;20.37;61.77;99973.25;10392997;28;20045;-86
2023/06/22 03:08:28;;;;;;;5.00;3.35;;;;;;;20.08;62.43;99965.53;10410193;28;20045;-85
2023/06/22 03:13:31;;;;;;;5.35;3.08;;;;;;;20.07;62.25;99963.88;10392114;28;20487;-86
2023/06/22 03:18:32;;;;;;;6.68;3.22;;;;;;;20.13;62.59;99969.38;10398270;28;20457;-85
2023/06/22 03:23:34;;;;;;;5.25;3.10;;;;;;;20.42;62.66;99974.47;10400811;28;20457;-86
2023/06/22 03:28:37;;;;;;;4.70;3.00;;;;;;;20.71;62.73;99985.69;10416896;28;20604;-86
2023/06/22 03:33:39;;;;;;;4.97;3.17;;;;;;;20.78;62.23;99980.59;10399617;28;20081;-85
2023/06/22 03:38:41;;;;;;;7.68;3.90;;;;;;;20.78;62.22;99976.13;10395941;28;20052;-85
2023/06/22 03:43:44;;;;;;;5.50;3.38;;;;;;;20.63;62.68;99976.81;10400918;28;20057;-85
2023/06/22 03:48:45;;;;;;;6.38;3.47;;;;;;;20.51;62.82;99973.56;10394263;28;20525;-85
2023/06/22 03:53:48;;;;;;;10.25;3.90;;;;;;;20.60;62.74;99974.50;10395322;28;20060;-84
2023/06/22 03:58:49;;;;;;;5.63;3.50;;;;;;;20.83;62.40;99984.47;10394310;28;20056;-85
2023/06/22 04:03:51;;;;;;;6.28;3.28;;;;;;;20.96;61.91;99979.56;10392716;28;20049;-85
2023/06/22 04:08:53;;;;;;;5.50;3.20;;;;;;;20.99;61.77;99971.25;10400436;28;20873;-84
2023/06/22 04:13:55;;;;;;;7.68;3.30;;;;;;;20.89;61.53;99975.84;10416874;28;20138;-85
2023/06/22 04:18:57;;;;;;;7.00;3.65;;;;;;;20.97;61.86;99981.22;10391772;28;20049;-84
2023/06/22 04:23:59;;;;;;;5.45;3.30;;;;;;;21.08;61.46;99991.63;10398236;28;20120;-85
2023/06/22 04:29:05;;;;;;;5.78;3.78;;;;;;;21.24;61.34;99984.69;10403155;28;20057;-85
2023/06/22 04:34:07;;;;;;;6.35;3.47;;;;;;;21.33;61.39;99986.47;10387359;28;20115;-85
2023/06/22 04:39:11;;;;;;;6.65;3.08;;;;;;;21.42;61.31;99974.84;10387738;28;20045;-85
2023/06/22 04:44:26;;;;;;;5.80;3.45;;;;;;;21.48;61.14;99972.38;10418869;28;20057;-85
2023/06/22 04:49:33;;;;;;;6.13;3.20;;;;;;;21.50;60.87;99969.56;10390678;28;20045;-85
2023/06/22 04:54:36;;;;;;;6.10;3.53;;;;;;;21.61;60.80;99969.28;10420612;28;20046;-85
2023/06/22 04:59:39;;;;;;;4.88;3.10;;;;;;;21.68;60.57;99960.47;10424707;28;20140;-85
2023/06/22 05:04:41;;;;;;;5.25;3.22;;;;;;;21.76;60.67;99965.00;10386967;28;20053;-85
2023/06/22 05:09:43;;;;;;;6.20;3.50;;;;;;;22.06;60.06;99972.44;10399378;28;20072;-85
2023/06/22 05:14:45;;;;;;;6.30;3.47;;;;;;;22.21;59.56;99956.63;10402739;28;20054;-85
2023/06/22 05:19:49;;;;;;;10.57;3.72;;;;;;;22.35;59.31;99961.31;10402264;28;20049;-84
2023/06/22 05:24:51;;;;;;;5.25;3.55;;;;;;;23.25;57.45;99953.84;10420217;28;20056;-85
2023/06/22 05:29:55;;;;;;;6.70;3.83;;;;;;;23.11;57.60;99951.06;10419351;28;20633;-85
2023/06/22 05:34:56;;;;;;;5.72;4.03;;;;;;;23.01;58.08;99947.75;10404027;28;20049;-84
2023/06/22 05:39:58;;;;;;;6.13;3.88;;;;;;;23.39;57.35;99944.31;10400820;28;20072;-84
2023/06/22 05:45:00;;;;;;;7.82;4.22;;;;;;;23.68;56.45;99935.66;10401333;28;20053;-84
2023/06/22 05:50:06;;;;;;;6.50;3.75;;;;;;;23.91;55.60;99937.38;10417776;28;20057;-84
2023/06/22 05:55:08;;;;;;;6.13;3.65;;;;;;;23.92;55.63;99932.88;10397432;28;20042;-84
2023/06/22 06:00:11;;;;;;;6.38;3.83;;;;;;;24.39;54.27;99938.06;10361908;28;20481;-84
2023/06/22 06:05:14;;;;;;;7.60;3.65;;;;;;;25.02;53.37;99941.97;10371087;28;20054;-84
2023/06/22 06:10:16;;;;;;;5.65;3.53;;;;;;;25.38;52.65;99939.44;10374966;28;20068;-84
2023/06/22 06:15:18;;;;;;;5.22;3.38;;;;;;;25.79;51.80;99942.41;10378030;28;20164;-86
2023/06/22 06:20:22;;;;;;;5.80;3.38;;;;;;;25.65;51.99;99941.41;10377244;28;20041;-86
2023/06/22 06:25:24;;;;;;;5.55;3.60;;;;;;;25.60;51.47;99951.88;10362009;28;20053;-86
2023/06/22 06:30:26;;;;;;;6.38;3.45;;;;;;;26.24;50.41;99941.25;10378412;28;20033;-87
2023/06/22 06:35:29;;;;;;;5.10;3.30;;;;;;;26.39;49.26;99932.13;10358635;28;20518;-87
2023/06/22 06:40:35;;;;;;;5.18;3.30;;;;;;;26.60;48.91;99934.81;10373635;28;20049;-87
2023/06/22 06:45:39;;;;;;;4.88;3.13;;;;;;;27.47;47.68;99922.56;10377141;28;20057;-87
2023/06/22 06:50:43;;;;;;;5.85;3.60;;;;;;;28.10;45.33;99923.16;10370911;28;20046;-87
2023/06/22 06:55:45;;;;;;;5.95;3.60;;;;;;;27.25;47.06;99922.84;10369541;28;20458;-87
2023/06/22 07:00:49;;;;;;;5.97;3.55;;;;;;;27.28;46.94;99915.22;10403640;28;20048;-87
2023/06/22 07:05:53;;;;;;;5.57;3.65;;;;;;;27.76;45.89;99909.84;10396344;28;20095;-86
2023/06/22 07:10:56;;;;;;;5.30;3.20;;;;;;;28.04;45.20;99913.22;10398162;28;20052;-86
2023/06/22 07:16:04;;;;;;;5.60;3.63;;;;;;;28.48;44.21;99910.81;10387938;28;20060;-87
2023/06/22 07:21:09;;;;;;;6.45;3.40;;;;;;;28.28;44.88;99904.56;10397078;28;20053;-87
2023/06/22 07:26:12;;;;;;;6.60;3.78;;;;;;;28.59;44.86;99918.25;10390028;28;20115;-87
2023/06/22 07:31:14;;;;;;;6.25;3.85;;;;;;;28.59;44.37;99902.09;10395440;28;20052;-87
2023/06/22 07:36:17;;;;;;;5.65;3.55;;;;;;;28.72;44.21;99899.41;10397073;28;20073;-87
2023/06/22 07:41:19;;;;;;;5.80;3.35;;;;;;;29.23;43.51;99891.44;10400164;28;20569;-87
2023/06/22 07:46:22;;;;;;;5.70;3.33;;;;;;;29.59;42.38;99867.47;10393944;28;20075;-87
2023/06/22 07:51:24;;;;;;;4.97;3.10;;;;;;;30.02;42.26;99862.25;10411608;28;20772;-87
2023/06/22 07:56:25;;;;;;;4.80;3.00;;;;;;;30.21;41.20;99852.34;10380252;28;20052;-87
2023/06/22 08:01:27;;;;;;;9.68;3.60;;;;;;;31.23;40.56;99841.78;10382456;28;20486;-86
2023/06/22 08:06:30;;;;;;;6.03;3.40;;;;;;;31.75;39.02;99838.34;10386551;28;20088;-87
2023/06/22 08:11:32;;;;;;;4.88;3.20;;;;;;;31.95;37.40;99829.94;10370402;28;20053;-87
2023/06/22 08:16:34;;;;;;;4.47;3.15;;;;;;;31.75;38.52;99819.44;10381257;28;20041;-87
2023/06/22 08:21:36;;;;;;;6.55;3.13;;;;;;;31.80;38.05;99806.00;10382172;28;20068;-87
2023/06/22 08:26:38;;;;;;;5.93;3.15;;;;;;;32.27;37.12;99801.50;10379399;28;20077;-87
2023/06/22 08:31:40;;;;;;;4.38;2.90;;;;;;;31.84;37.49;99788.25;10388478;28;20053;-86
2023/06/22 08:36:43;;;;;;;8.10;3.20;;;;;;;30.97;38.72;99804.22;10372181;28;20045;-87
2023/06/22 08:41:45;;;;;;;5.13;3.20;;;;;;;31.31;38.34;99776.59;10396051;28;20046;-87
2023/06/22 08:46:46;;;;;;;5.13;3.08;;;;;;;32.29;37.48;99771.53;10408484;28;20046;-86
2023/06/22 08:51:54;;;;;;;4.78;3.03;;;;;;;31.90;37.34;99779.22;10401259;28;20053;-85
2023/06/22 08:56:56;;;;;;;5.03;3.40;;;;;;;31.61;37.54;99782.81;10373853;28;20056;-86
2023/06/22 09:01:58;;;;;;;5.18;3.00;;;;;;;31.51;37.87;99766.34;10389952;28;20115;-86
2023/06/22 09:07:03;;;;;;;5.18;3.42;;;;;;;31.82;36.95;99754.41;10407959;28;20049;-86
2023/06/22 09:12:06;;;;;;;4.68;2.90;;;;;;;31.71;37.81;99744.41;10428232;28;20440;-86
2023/06/22 09:17:08;;;;;;;5.28;3.30;;;;;;;32.28;36.87;99750.91;10429567;28;20041;-86
2023/06/22 09:22:10;;;;;;;5.20;3.42;;;;;;;32.15;36.95;99716.78;10417187;28;20049;-86
2023/06/22 09:27:12;;;;;;;5.68;3.45;;;;;;;32.02;37.00;99711.66;10431613;28;20048;-86
2023/06/22 09:32:13;;;;;;;5.25;3.20;;;;;;;32.65;36.34;99695.44;10395604;28;20053;-86
2023/06/22 09:37:15;;;;;;;5.50;3.20;;;;;;;32.86;36.04;99701.00;10394170;28;20083;-86
2023/06/22 09:42:17;;;;;;;5.38;3.03;;;;;;;31.63;36.83;99696.91;10418712;28;20053;-85
2023/06/22 09:47:19;;;;;;;5.15;3.13;;;;;;;31.27;37.86;99678.13;10408028;28;20038;-86
2023/06/22 09:52:21;;;;;;;6.75;3.30;;;;;;;31.72;37.53;99665.72;10405292;28;20061;-85
2023/06/22 09:57:29;;;;;;;5.25;3.50;;;;;;;31.58;37.55;99664.31;10401531;28;20148;-83
2023/06/22 10:02:31;;;;;;;5.45;3.55;;;;;;;31.40;37.78;99653.56;10403333;28;20060;-84
2023/06/22 10:07:33;;;;;;;6.63;2.70;;;;;;;31.44;37.68;99638.53;10402499;28;20095;-84
2023/06/22 10:12:35;;;;;;;4.80;3.08;;;;;;;31.41;38.04;99633.63;10381817;28;20045;-85
2023/06/22 10:17:38;;;;;;;5.53;3.15;;;;;;;31.33;37.63;99628.56;10412776;28;20045;-85
2023/06/22 10:22:41;;;;;;;4.80;2.90;;;;;;;30.94;37.13;99627.25;10403811;28;20049;-84
2023/06/22 10:27:46;;;;;;;5.13;2.75;;;;;;;31.04;36.65;99608.66;10410794;28;20132;-83
2023/06/22 10:32:48;;;;;;;4.82;2.90;;;;;;;30.99;36.23;99622.00;10396876;28;20049;-84
2023/06/22 10:37:50;;;;;;;4.82;2.75;;;;;;;31.07;36.84;99628.97;10407034;28;20094;-82
2023/06/22 10:42:52;;;;;;;4.38;2.88;;;;;;;31.29;36.66;99621.97;10395779;28;20057;-83
2023/06/22 10:47:54;;;;;;;6.10;2.88;;;;;;;31.40;36.44;99619.28;10394077;28;20045;-83
2023/06/22 10:52:57;;;;;;;4.65;2.85;;;;;;;31.04;36.98;99640.22;10377642;28;20056;-83
2023/06/22 10:58:02;;;;;;;4.43;2.90;;;;;;;30.93;36.71;99622.06;10390487;28;20053;-83
2023/06/22 11:03:06;;;;;;;4.57;2.83;;;;;;;31.31;35.90;99619.84;10381577;28;20373;-85
2023/06/22 11:08:08;;;;;;;5.18;3.10;;;;;;;31.33;35.68;99615.84;10396079;28;20064;-84
2023/06/22 11:13:10;;;;;;;4.80;2.75;;;;;;;31.01;36.33;99616.38;10403860;28;20563;-85
2023/06/22 11:18:13;;;;;;;4.03;2.85;;;;;;;31.54;35.52;99603.66;10400658;28;20047;-83
2023/06/22 11:23:15;;;;;;;4.05;2.65;;;;;;;32.17;34.88;99588.31;10401454;28;20136;-82
2023/06/22 11:28:17;;;;;;;5.07;3.03;;;;;;;32.61;34.49;99561.59;10397853;28;20049;-86
2023/06/22 11:33:27;;;;;;;4.38;2.80;;;;;;;32.71;33.79;99562.59;10421115;28;20444;-84
2023/06/22 11:38:31;;;;;;;4.63;2.70;;;;;;;32.57;34.07;99563.16;10410638;28;20056;-85
2023/06/22 11:43:34;;;;;;;4.47;2.90;;;;;;;32.46;34.22;99558.56;10414355;28;20056;-85
2023/06/22 11:48:36;;;;;;;5.07;2.80;;;;;;;32.67;34.05;99555.22;10409932;28;20052;-85
2023/06/22 11:53:38;;;;;;;4.47;2.90;;;;;;;32.66;33.76;99554.38;10406244;28;20053;-85
2023/06/22 11:58:41;;;;;;;3.65;2.38;;;;;;;32.57;33.43;99545.03;10408143;28;20060;-85
2023/06/22 12:03:43;;;;;;;4.50;2.42;;;;;;;33.25;31.78;99542.09;10403988;28;20052;-84
2023/06/22 12:08:45;;;;;;;4.32;2.50;;;;;;;33.04;31.89;99542.88;10405566;28;20395;-84
2023/06/22 12:13:47;;;;;;;6.72;2.83;;;;;;;32.79;32.19;99534.28;10422244;28;20064;-84
2023/06/22 12:18:49;;;;;;;4.68;2.90;;;;;;;33.58;31.38;99509.56;10402447;28;20417;-84
2023/06/22 12:23:51;;;;;;;3.75;2.30;;;;;;;33.85;31.11;99509.63;10403150;28;20143;-84
2023/06/22 12:28:53;;;;;;;5.35;2.60;;;;;;;33.39;31.50;99494.59;10406936;28;20053;-85
2023/06/22 12:33:55;;;;;;;4.40;2.65;;;;;;;33.07;31.75;99481.94;10387239;28;20046;-85
2023/06/22 12:38:58;;;;;;;6.50;2.90;;;;;;;33.09;31.32;99483.34;10420459;28;20069;-83
2023/06/22 12:44:01;;;;;;;4.50;2.70;;;;;;;33.02;31.64;99466.44;10401066;28;21133;-84
2023/06/22 12:49:04;;;;;;;6.10;3.00;;;;;;;33.02;32.07;99456.41;10400621;28;20049;-84
2023/06/22 12:54:05;;;;;;;5.10;2.75;;;;;;;33.35;32.15;99455.50;10399310;28;20084;-84
2023/06/22 12:59:07;;;;;;;5.53;2.90;;;;;;;33.35;32.25;99450.09;10396994;28;20472;-84
2023/06/22 13:04:12;;;;;;;4.22;2.65;;;;;;;33.29;32.10;99440.25;10396942;28;20137;-84
2023/06/22 13:09:19;;;;;;;4.93;2.90;;;;;;;32.76;32.34;99419.13;10401774;28;20053;-85
2023/06/22 13:14:23;;;;;;;4.00;2.63;;;;;;;32.55;32.77;99405.53;10394326;28;20138;-85
2023/06/22 13:19:31;;;;;;;6.47;3.22;;;;;;;32.48;32.84;99383.19;10388877;28;20091;-85
2023/06/22 13:24:34;;;;;;;9.20;3.20;;;;;;;32.59;33.06;99379.59;10380456;28;20557;-85
2023/06/22 13:29:36;;;;;;;5.55;3.20;;;;;;;32.75;33.12;99348.97;10399782;28;20569;-84
2023/06/22 13:34:44;;;;;;;5.80;3.42;;;;;;;32.75;32.86;99349.81;10399884;28;20050;-84
2023/06/22 13:39:49;;;;;;;4.53;2.83;;;;;;;32.88;33.15;99343.22;10400457;28;20041;-84
2023/06/22 13:44:53;;;;;;;5.38;3.20;;;;;;;32.54;33.03;99296.41;10389770;28;20065;-84
2023/06/22 13:50:04;;;;;;;5.72;2.95;;;;;;;32.31;33.04;99312.00;10396045;28;20038;-84
2023/06/22 13:55:06;;;;;;;7.07;2.97;;;;;;;32.54;33.27;99284.75;10389957;28;20517;-83
2023/06/22 14:00:09;;;;;;;5.50;2.92;;;;;;;32.61;33.13;99263.75;10392493;28;20056;-84
2023/06/22 14:05:15;;;;;;;8.85;3.35;;;;;;;32.30;33.50;99273.28;10394772;28;20052;-84
2023/06/22 14:10:17;;;;;;;4.45;2.60;;;;;;;31.86;33.56;99266.06;10397986;28;20486;-83
2023/06/22 14:15:33;;;;;;;6.03;2.70;;;;;;;31.40;33.95;99275.19;10413360;28;20049;-84
2023/06/22 14:20:36;;;;;;;7.90;2.70;;;;;;;30.85;37.63;99295.66;10397055;28;20057;-81
2023/06/22 14:25:39;;;;;;;8.40;3.42;;;;;;;29.52;42.79;99326.91;10387740;28;20049;-81
2023/06/22 14:30:52;;;;;;;5.50;2.33;;;;;;;27.05;45.70;99348.28;10418722;28;20059;-82
2023/06/22 14:42:03;;;;;;;3.55;2.20;;;;;;;25.52;48.56;99320.00;10428472;28;20144;-82
2023/06/22 14:47:07;;;;;;;5.97;1.98;;;;;;;25.20;49.51;99322.53;10412835;28;20057;-83
2023/06/22 14:52:10;;;;;;;4.78;2.47;;;;;;;24.94;52.35;99420.34;10393632;28;20052;-83
2023/06/22 14:57:23;;;;;;;6.95;2.60;;;;;;;22.51;66.36;99546.38;10372741;28;20053;-82
2023/06/22 15:02:29;;;;;;;4.03;1.70;;;;;;;19.76;66.81;99362.78;10396218;28;20126;-86
2023/06/22 15:07:36;;;;;;;3.88;1.80;;;;;;;19.65;68.44;99357.78;10368483;28;20052;-86
2023/06/22 15:12:39;;;;;;;5.07;2.28;;;;;;;20.15;65.81;99362.00;10395569;28;20098;-88
2023/06/22 15:17:49;;;;;;;3.88;2.00;;;;;;;20.13;67.07;99390.56;10378390;28;20053;-87
2023/06/22 15:22:59;;;;;;;5.40;2.50;;;;;;;20.33;68.00;99411.47;10396631;28;20037;-90
2023/06/22 15:28:24;;;;;;;5.03;2.50;;;;;;;20.99;67.33;99420.91;10409087;28;20052;-91
2023/06/22 15:39:24;;;;;;;5.13;2.20;;;;;;;21.76;63.40;99452.03;10424284;28;20045;-89
2023/06/22 15:44:33;;;;;;;3.35;1.80;;;;;;;21.94;63.82;99453.63;10392094;28;20136;-90
2023/06/22 15:49:38;;;;;;;6.53;1.92;;;;;;;21.82;63.66;99493.13;10391315;28;20043;-89
2023/06/22 15:54:40;;;;;;;4.57;1.80;;;;;;;21.87;64.21;99512.91;10391678;28;20851;-87
2023/06/22 15:59:43;;;;;;;4.75;2.15;;;;;;;21.55;64.70;99485.59;10394742;28;20053;-87
2023/06/22 16:04:59;;;;;;;5.95;1.90;;;;;;;21.49;66.57;99435.72;10391307;28;20056;-88
2023/06/22 16:10:01;;;;;;;4.78;1.92;;;;;;;21.59;63.79;99396.41;10393701;28;20040;-88
2023/06/22 16:15:04;;;;;;;4.35;1.90;;;;;;;21.73;63.98;99393.84;10368814;28;20065;-88
2023/06/22 16:20:08;;;;;;;3.20;1.48;;;;;;;21.68;64.71;99384.75;10377217;28;20053;-89
2023/06/22 16:25:11;;;;;;;4.80;1.90;;;;;;;21.75;63.78;99365.22;10400705;28;20163;-88
2023/06/22 16:30:19;;;;;;;6.82;2.10;;;;;;;21.94;64.50;99337.31;10405670;28;20045;-88
2023/06/22 16:35:23;;;;;;;5.43;2.53;;;;;;;21.99;63.88;99363.38;10426077;28;20025;-88
2023/06/22 16:40:26;;;;;;;4.20;2.10;;;;;;;22.12;63.59;99383.13;10404551;28;20355;-88
2023/06/22 16:45:34;;;;;;;5.05;1.63;;;;;;;22.30;63.67;99401.47;10396366;28;20056;-88
2023/06/22 16:50:36;;;;;;;7.95;2.13;;;;;;;22.39;62.72;99427.84;10399927;28;20530;-87
2023/06/22 16:55:45;;;;;;;4.13;1.70;;;;;;;22.07;63.27;99436.09;10397450;28;20140;-87
2023/06/22 17:00:48;;;;;;;3.75;1.90;;;;;;;21.67;64.39;99431.81;10360367;28;20050;-87
2023/06/22 17:05:56;;;;;;;5.78;1.80;;;;;;;21.59;64.57;99409.72;10367330;28;20042;-87
2023/06/22 17:11:05;;;;;;;5.03;2.00;;;;;;;21.82;65.04;99403.44;10356466;28;20108;-87
2023/06/22 17:16:11;;;;;;;5.25;2.03;;;;;;;22.18;64.44;99405.56;10371240;28;20049;-86
2023/06/22 17:21:20;;;;;;;5.10;1.80;;;;;;;22.43;63.67;99409.69;10373960;28;20045;-87
2023/06/22 17:26:33;;;;;;;5.15;1.92;;;;;;;22.53;63.23;99402.28;10362163;28;20045;-85
2023/06/22 17:31:38;;;;;;;4.00;1.92;;;;;;;22.42;63.06;99398.19;10371084;28;20053;-86
2023/06/22 17:36:47;;;;;;;5.07;2.05;;;;;;;22.42;62.90;99398.19;10409846;28;20545;-86
2023/06/22 17:41:51;;;;;;;3.85;1.73;;;;;;;22.42;62.91;99387.53;10373429;28;20046;-85
2023/06/22 17:46:56;;;;;;;5.93;1.70;;;;;;;22.56;63.31;99372.56;10367460;28;20971;-85
2023/06/22 17:52:01;;;;;;;2.90;1.58;;;;;;;22.65;62.73;99364.34;10374010;28;20048;-85
2023/06/22 17:57:15;;;;;;;4.03;1.88;;;;;;;22.63;63.87;99358.34;10378249;28;20054;-84
2023/06/22 18:02:23;;;;;;;3.78;1.90;;;;;;;22.74;63.74;99350.94;10370580;28;20084;-84
2023/06/22 18:07:37;;;;;;;3.13;1.55;;;;;;;22.77;63.56;99345.25;10367822;28;20037;-84
2023/06/22 18:12:41;;;;;;;5.47;2.17;;;;;;;22.71;62.63;99346.78;10361038;28;20048;-84
2023/06/22 18:17:46;;;;;;;4.38;1.70;;;;;;;22.83;62.69;99341.84;10366329;28;20108;-84
2023/06/22 18:22:50;;;;;;;4.07;2.00;;;;;;;22.94;62.08;99334.22;10358192;28;20919;-83
2023/06/22 18:27:56;;;;;;;4.93;1.90;;;;;;;22.83;62.33;99336.50;10336392;28;20148;-84
2023/06/22 18:32:58;;;;;;;4.47;1.83;;;;;;;22.52;62.59;99336.63;10390672;28;20052;-85
2023/06/22 18:38:04;;;;;;;6.65;1.92;;;;;;;22.20;63.91;99336.94;10374401;28;20053;-85
2023/06/22 18:43:07;;;;;;;4.95;2.28;;;;;;;21.91;64.47;99337.66;10383349;28;20045;-85
2023/06/22 18:48:24;;;;;;;8.02;2.10;;;;;;;22.01;66.17;99332.91;10373812;28;20414;-85
2023/06/22 18:53:28;;;;;;;4.50;2.08;;;;;;;22.27;64.56;99344.03;10368203;28;20049;-85
2023/06/22 18:58:32;;;;;;;6.60;2.13;;;;;;;22.08;65.25;99344.53;10392608;28;20055;-85
2023/06/22 19:03:35;;;;;;;5.70;2.28;;;;;;;21.87;65.58;99333.69;10380004;28;20048;-83
2023/06/22 19:09:15;;;;;;;4.40;2.08;;;;;;;21.79;66.94;99363.03;10396014;28;20045;-83
2023/06/22 19:14:21;;;;;;;4.23;2.00;;;;;;;21.82;66.10;99360.03;10374023;28;20145;-83
2023/06/22 19:19:26;;;;;;;5.18;2.20;;;;;;;21.81;65.86;99355.69;10396156;28;20095;-83
2023/06/22 19:24:51;;;;;;;3.97;2.28;;;;;;;21.69;67.63;99344.63;10400964;28;20052;-83
2023/06/22 19:30:06;;;;;;;4.18;2.40;;;;;;;21.55;67.54;99344.56;10378970;28;20482;-84
2023/06/22 19:35:10;;;;;;;4.85;2.30;;;;;;;21.65;66.17;99353.97;10388166;28;21067;-84
2023/06/22 19:40:15;;;;;;;5.47;2.50;;;;;;;21.72;65.89;99348.78;10394600;28;20502;-84
2023/06/22 19:45:17;;;;;;;4.55;2.40;;;;;;;21.78;66.06;99358.72;10410179;28;20119;-84
2023/06/22 19:50:20;;;;;;;3.97;2.20;;;;;;;21.77;65.97;99351.72;10396883;28;20049;-83
2023/06/22 19:55:27;;;;;;;4.47;2.33;;;;;;;21.79;65.76;99352.38;10415233;28;20037;-83
2023/06/22 20:00:34;;;;;;;5.93;2.55;;;;;;;21.68;65.62;99348.28;10417349;28;20136;-83
2023/06/22 20:05:41;;;;;;;4.65;2.33;;;;;;;21.60;66.23;99353.66;10395407;28;20049;-83
2023/06/22 20:10:45;;;;;;;3.80;2.10;;;;;;;21.35;67.08;99367.28;10422925;28;20498;-84
2023/06/22 20:15:48;;;;;;;6.05;2.47;;;;;;;21.36;66.65;99371.59;10398991;28;20472;-83
2023/06/22 20:20:58;;;;;;;5.00;2.20;;;;;;;21.31;67.61;99360.63;10417989;28;20514;-83
2023/06/22 20:26:00;;;;;;;3.47;2.00;;;;;;;21.28;66.72;99374.25;10393966;28;20084;-83
2023/06/22 20:31:08;;;;;;;3.60;1.85;;;;;;;21.43;66.64;99383.22;10397435;28;20053;-83
2023/06/22 20:36:13;;;;;;;2.35;1.38;;;;;;;21.53;65.72;99389.97;10400370;28;20048;-84
2023/06/22 20:41:16;;;;;;;2.78;1.20;;;;;;;21.45;64.88;99411.31;10411208;28;20573;-84
2023/06/22 20:46:18;;;;;;;4.28;1.08;;;;;;;21.32;64.50;99419.00;10408515;28;20049;-84
2023/06/22 20:51:20;;;;;;;1.60;1.00;;;;;;;21.26;64.52;99437.44;10421413;28;20593;-89
2023/06/22 20:56:23;;;;;;;0.80;0.80;;;;;;;21.09;64.01;99449.94;10406154;28;20057;-89
2023/06/22 21:01:25;;;;;;;0.82;0.82;;;;;;;20.99;64.22;99460.78;10401518;28;20057;-88
2023/06/22 21:06:27;;;;;;;1.00;0.90;;;;;;;20.72;64.50;99476.28;10400204;28;20503;-89
2023/06/22 21:11:29;;;;;;;0.75;0.70;;;;;;;20.68;64.14;99490.88;10403964;28;20053;-88
2023/06/22 21:16:31;;;;;;;0.60;0.55;;;;;;;20.51;63.98;99507.78;10387280;28;20143;-89
2023/06/22 21:21:34;;;;;;;0.68;0.60;;;;;;;20.53;63.51;99522.56;10387742;28;20051;-89
2023/06/22 21:26:35;;;;;;;1.35;0.75;;;;;;;20.51;63.50;99548.47;10398430;28;20045;-89
2023/06/22 21:31:37;;;;;;;1.25;0.80;;;;;;;20.39;63.56;99555.09;10416273;28;20088;-89
2023/06/22 21:36:39;;;;;;;1.20;0.80;;;;;;;20.23;64.05;99576.28;10400681;28;20462;-88
2023/06/22 21:41:41;;;;;;;1.90;1.23;;;;;;;20.03;64.04;99585.53;10420364;28;20045;-89
2023/06/22 21:46:43;;;;;;;1.65;1.10;;;;;;;19.92;63.97;99607.88;10397085;28;20513;-89
2023/06/22 21:51:45;;;;;;;2.45;1.38;;;;;;;19.92;63.92;99610.53;10398987;28;20505;-89
2023/06/22 21:56:46;;;;;;;1.92;1.27;;;;;;;19.77;64.34;99608.56;10402400;28;20191;-89
2023/06/22 22:01:48;;;;;;;2.90;1.50;;;;;;;19.70;64.48;99615.50;10398706;28;20042;-89
2023/06/22 22:06:50;;;;;;;2.30;1.58;;;;;;;19.51;64.76;99626.31;10399469;28;20048;-88
2023/06/22 22:11:52;;;;;;;3.17;1.80;;;;;;;19.42;65.67;99628.06;10416351;28;20073;-88
2023/06/22 22:16:54;;;;;;;5.65;2.25;;;;;;;19.10;66.85;99633.13;10399481;28;20041;-87
2023/06/22 22:21:56;;;;;;;3.03;1.90;;;;;;;18.91;66.24;99631.44;10416000;28;20051;-87
2023/06/22 22:26:58;;;;;;;3.40;2.00;;;;;;;18.83;66.54;99647.25;10397561;28;20065;-87
2023/06/22 22:32:00;;;;;;;4.43;2.25;;;;;;;18.80;65.89;99666.13;10415539;28;20041;-87
2023/06/22 22:37:02;;;;;;;4.03;2.40;;;;;;;18.76;66.53;99678.00;10399316;28;20044;-86
2023/06/22 22:42:05;;;;;;;4.47;1.90;;;;;;;18.57;67.02;99696.66;10399615;28;20075;-86
2023/06/22 22:47:07;;;;;;;3.08;1.90;;;;;;;18.37;67.08;99719.75;10400979;28;20053;-86
2023/06/22 22:52:09;;;;;;;4.20;2.00;;;;;;;18.35;67.45;99742.91;10395776;28;20049;-86
2023/06/22 22:57:11;;;;;;;5.28;2.15;;;;;;;18.22;67.18;99744.22;10415597;28;20059;-85
2023/06/22 23:02:13;;;;;;;4.25;2.25;;;;;;;18.25;66.75;99741.25;10381129;28;20091;-87
2023/06/22 23:07:15;;;;;;;5.28;2.35;;;;;;;18.20;66.46;99741.69;10395063;28;20059;-87
2023/06/22 23:12:17;;;;;;;4.50;2.30;;;;;;;18.11;65.79;99744.34;10411186;28;20044;-86
2023/06/22 23:17:19;;;;;;;3.78;2.08;;;;;;;17.87;67.85;99734.25;10417367;28;20049;-86
2023/06/22 23:22:21;;;;;;;3.70;2.08;;;;;;;17.76;67.70;99726.47;10383160;28;20084;-86
2023/06/22 23:27:23;;;;;;;4.07;2.30;;;;;;;17.74;67.56;99726.59;10414368;28;20056;-85
2023/06/22 23:32:25;;;;;;;5.68;2.45;;;;;;;17.76;68.23;99734.38;10401951;28;20072;-86
2023/06/22 23:37:27;;;;;;;3.67;2.17;;;;;;;17.65;68.14;99743.31;10405892;28;20077;-86
2023/06/22 23:42:29;;;;;;;4.43;2.50;;;;;;;17.53;68.47;99739.16;10415203;28;20135;-85